Erp, Netherlands
Current Conditions -  °F | °C
As of 10:25 AM on Friday 28 Nov 2014 (Local Time) from EHVK Reporting Station
Haze Haze  
Wind Chill: 39°   Ceiling: 7500
Heat Index: 45°   Visibility: 4mi
Dew Point: 41°   Wind: 12mph
Humidity: 87%   Direction: 90°E
Pressure: 29.77"   Gusts: NA
Location:  51.6°N, 5.61°E
Report Text: EHVK 280925Z AUTO 09010KT 7000 BR FEW068 BKN075 BKN085 07/05 Q1008 WHT 09011KT CAVOK
Loading
Personal Weather Stations






























Interactive Weather Map New forecast layout! Learn more

10-Day Weather Forecast

Advertisements
Track Severe Weather on mobile